Time;durP1;ratioP1;P1;durP2;ratioP2;P2;SDS_P1;SDS_P2;PMS_P1;PMS_P2;Temp;Humidity;BMP_temperature;BMP_pressure;BME280_temperature;BME280_humidity;BME280_pressure;Samples;Min_cycle;Max_cycle;Signal;HPM_P1;HPM_P2
2023/10/04 12:07:18;;;;;;;7.68;2.35;;;27.20;66.00;;;;;;5299875;23;20111;-55
2023/10/04 12:09:44;;;;;;;2.92;1.00;;;27.90;63.20;;;;;;4962207;28;20031;-57
2023/10/04 12:12:16;;;;;;;3.50;1.10;;;27.50;61.70;;;;;;4952239;28;20042;-65
2023/10/04 12:14:43;;;;;;;4.93;1.50;;;26.30;64.50;;;;;;4954861;28;20394;-56
2023/10/04 12:17:09;;;;;;;7.47;1.50;;;25.10;67.00;;;;;;4929435;29;20488;-49
2023/10/04 12:19:35;;;;;;;5.45;1.80;;;24.00;67.90;;;;;;4961286;23;20160;-47
2023/10/04 12:22:09;;;;;;;3.88;1.23;;;23.10;69.20;;;;;;4935365;29;20384;-53
2023/10/04 12:24:45;;;;;;;5.57;1.42;;;23.40;69.80;;;;;;4931158;29;20040;-53
2023/10/04 12:27:16;;;;;;;8.60;1.77;;;24.50;67.50;;;;;;4931599;29;20436;-55
2023/10/04 12:29:41;;;;;;;;;;;23.90;68.50;;;;;;4931070;29;20091;-51
2023/10/04 12:32:07;;;;;;;5.38;1.25;;;23.70;71.70;;;;;;4929041;29;20326;-52
2023/10/04 12:34:34;;;;;;;4.65;1.30;;;23.50;70.60;;;;;;4929949;29;20042;-53
2023/10/04 12:37:00;;;;;;;6.70;1.25;;;24.40;69.80;;;;;;4934947;29;20063;-52
2023/10/04 12:39:26;;;;;;;2.42;1.00;;;25.30;67.10;;;;;;4930976;29;20114;-51
2023/10/04 12:41:53;;;;;;;5.78;1.55;;;25.70;66.50;;;;;;4933986;29;20055;-52
2023/10/04 12:44:19;;;;;;;6.00;1.20;;;25.30;65.60;;;;;;4929555;29;20088;-52
2023/10/04 12:46:47;;;;;;;3.63;1.00;;;23.90;68.20;;;;;;4927081;29;20039;-50
2023/10/04 12:49:15;;;;;;;2.35;0.98;;;23.10;70.70;;;;;;4930918;29;20035;-54
2023/10/04 12:51:41;;;;;;;5.90;1.92;;;22.70;73.00;;;;;;4949462;28;20028;-53
2023/10/04 12:54:11;;;;;;;5.22;1.30;;;22.20;76.20;;;;;;4929565;29;20049;-56
2023/10/04 12:56:38;;;;;;;4.03;1.00;;;23.10;75.20;;;;;;4924528;29;20093;-51
2023/10/04 12:59:05;;;;;;;9.85;3.42;;;23.60;71.50;;;;;;4930599;29;20027;-53
2023/10/04 13:01:32;;;;;;;6.93;2.22;;;23.70;69.40;;;;;;4933108;29;20365;-53
2023/10/04 13:04:03;;;;;;;3.55;1.27;;;23.50;69.50;;;;;;4932358;29;20115;-51
2023/10/04 13:06:34;;;;;;;2.85;1.00;;;22.40;71.40;;;;;;4928863;29;20412;-51
2023/10/04 13:09:00;;;;;;;3.50;0.98;;;21.80;72.80;;;;;;4932375;29;20668;-50
2023/10/04 13:11:26;;;;;;;6.13;1.38;;;21.60;76.10;;;;;;4932651;29;20044;-53
2023/10/04 13:13:53;;;;;;;7.82;1.33;;;21.50;78.70;;;;;;4933735;29;20063;-48
2023/10/04 13:16:21;;;;;;;9.82;2.95;;;21.80;78.30;;;;;;4923605;29;20043;-48
2023/10/04 13:18:48;;;;;;;14.57;3.00;;;21.90;77.10;;;;;;4933163;29;20387;-50
2023/10/04 13:21:16;;;;;;;5.15;1.60;;;22.10;76.70;;;;;;4929719;29;20127;-51
2023/10/04 13:23:42;;;;;;;4.40;1.15;;;21.90;78.70;;;;;;4934365;29;20094;-52
2023/10/04 13:26:10;;;;;;;5.78;1.45;;;22.30;76.60;;;;;;4928865;29;20038;-48
2023/10/04 13:28:36;;;;;;;7.32;1.30;;;22.20;73.10;;;;;;4934263;29;20557;-68
2023/10/04 13:31:02;;;;;;;5.00;1.63;;;21.90;73.90;;;;;;4931630;29;20432;-69
2023/10/04 13:33:29;;;;;;;5.57;2.10;;;21.60;77.70;;;;;;4946818;29;20024;-69
2023/10/04 13:35:55;;;;;;;4.05;1.40;;;21.20;76.90;;;;;;4920965;29;20032;-69
2023/10/04 13:38:22;;;;;;;3.15;1.20;;;21.10;79.00;;;;;;4925543;29;20040;-69
2023/10/04 13:40:49;;;;;;;7.03;1.50;;;21.00;79.40;;;;;;4921011;29;20028;-70
2023/10/04 13:43:16;;;;;;;4.30;1.45;;;21.40;79.00;;;;;;4919892;29;20054;-68
2023/10/04 13:45:43;;;;;;;3.47;1.25;;;21.20;80.60;;;;;;4928073;29;20036;-69
2023/10/04 13:48:09;;;;;;;7.43;1.50;;;21.40;79.30;;;;;;4945842;28;20036;-70
2023/10/04 13:50:40;;;;;;;6.35;1.65;;;21.80;78.30;;;;;;4937328;28;20499;-69
2023/10/04 13:53:10;;;;;;;5.37;1.67;;;21.60;78.60;;;;;;4931088;29;20031;-69
2023/10/04 13:55:39;;;;;;;3.47;1.40;;;21.20;79.70;;;;;;4927018;29;20323;-69
2023/10/04 13:58:09;;;;;;;5.43;1.80;;;21.00;79.50;;;;;;4928826;29;20095;-69
2023/10/04 14:00:49;;;;;;;4.45;2.08;;;20.70;83.80;;;;;;4929688;29;20063;-69
2023/10/04 14:03:16;;;;;;;5.13;1.80;;;21.00;82.40;;;;;;4925535;29;20126;-69
2023/10/04 14:05:42;;;;;;;2.55;1.25;;;21.20;82.10;;;;;;4929358;28;20027;-69
2023/10/04 14:08:11;;;;;;;7.72;1.48;;;21.30;80.80;;;;;;4933769;29;20719;-69
2023/10/04 14:10:37;;;;;;;9.18;1.98;;;20.80;81.20;;;;;;4923420;29;20048;-69
2023/10/04 14:13:04;;;;;;;5.80;1.40;;;20.40;81.80;;;;;;4933882;29;20024;-69
2023/10/04 14:15:33;;;;;;;5.60;1.58;;;20.60;82.90;;;;;;4924747;29;20032;-69
2023/10/04 14:18:00;;;;;;;7.25;2.00;;;20.90;80.40;;;;;;4920717;29;20115;-69
2023/10/04 14:20:27;;;;;;;6.93;1.50;;;21.10;80.70;;;;;;4913227;29;20599;-69
2023/10/04 14:22:56;;;;;;;6.15;2.08;;;21.80;79.80;;;;;;4914694;29;20036;-69
2023/10/04 14:25:22;;;;;;;6.55;1.63;;;22.30;79.00;;;;;;4913118;29;20043;-69
2023/10/04 14:27:48;;;;;;;5.85;2.42;;;22.20;75.30;;;;;;4914720;29;20028;-69
2023/10/04 14:30:17;;;;;;;7.82;3.47;;;22.10;75.70;;;;;;4924307;29;20145;-69
2023/10/04 14:32:47;;;;;;;5.57;1.63;;;22.40;77.10;;;;;;4932757;29;20396;-68
2023/10/04 14:35:13;;;;;;;4.75;1.40;;;22.30;75.50;;;;;;4928821;29;20027;-68
2023/10/04 14:37:40;;;;;;;4.25;1.55;;;21.90;77.40;;;;;;4934411;29;20039;-68
2023/10/04 14:40:14;;;;;;;6.30;1.77;;;21.50;75.90;;;;;;4931735;29;20088;-68
2023/10/04 14:42:40;;;;;;;6.90;1.50;;;21.50;76.60;;;;;;4937244;29;20035;-69
2023/10/04 14:45:07;;;;;;;5.35;1.90;;;21.30;78.20;;;;;;4944217;28;20035;-68
2023/10/04 14:47:36;;;;;;;6.47;2.00;;;21.30;78.60;;;;;;4935148;29;20027;-69
2023/10/04 14:50:04;;;;;;;8.13;1.92;;;21.00;77.00;;;;;;4910084;29;20028;-68
2023/10/04 14:52:31;;;;;;;4.72;1.73;;;20.90;77.70;;;;;;4934111;29;20035;-68
2023/10/04 14:55:01;;;;;;;6.22;1.60;;;20.60;81.10;;;;;;4932686;29;20482;-69
2023/10/04 14:57:28;;;;;;;5.40;1.77;;;20.60;78.90;;;;;;4936785;29;20028;-68
2023/10/04 14:59:54;;;;;;;6.55;1.40;;;20.80;80.50;;;;;;4932609;29;20562;-68
2023/10/04 15:02:20;;;;;;;4.30;1.67;;;20.60;79.90;;;;;;4935541;29;20126;-68
2023/10/04 15:04:46;;;;;;;4.93;1.77;;;20.60;78.80;;;;;;4932826;29;20035;-68
2023/10/04 15:07:13;;;;;;;3.35;1.15;;;20.20;81.90;;;;;;4936325;29;20027;-68
2023/10/04 15:09:39;;;;;;;6.80;1.70;;;20.00;84.00;;;;;;4928980;29;20067;-68
2023/10/04 15:12:05;;;;;;;3.85;1.38;;;19.70;87.00;;;;;;4924450;29;20020;-69
2023/10/04 15:14:32;;;;;;;4.97;1.70;;;19.60;87.60;;;;;;4924439;29;20035;-68
2023/10/04 15:16:59;;;;;;;5.63;1.50;;;19.60;88.30;;;;;;4930546;29;20019;-69
2023/10/04 15:19:25;;;;;;;7.25;1.35;;;19.70;87.60;;;;;;4931968;29;20119;-68
2023/10/04 15:21:51;;;;;;;10.20;2.47;;;19.70;88.20;;;;;;4935382;29;20522;-68
2023/10/04 15:24:18;;;;;;;4.85;1.80;;;19.70;90.30;;;;;;4925350;29;20346;-68
2023/10/04 15:26:49;;;;;;;6.38;1.60;;;19.60;89.30;;;;;;4928844;29;20126;-68
2023/10/04 15:29:15;;;;;;;15.68;1.92;;;19.80;90.40;;;;;;4932781;29;20036;-68
2023/10/04 15:31:44;;;;;;;7.25;2.17;;;19.60;90.90;;;;;;4936455;29;20023;-69
2023/10/04 15:34:12;;;;;;;7.20;1.90;;;19.80;89.30;;;;;;4933379;29;20111;-68
2023/10/04 15:36:43;;;;;;;4.53;1.52;;;20.10;90.20;;;;;;4935806;29;20040;-69
2023/10/04 15:39:22;;;;;;;6.38;1.40;;;20.30;89.80;;;;;;4925847;29;20127;-69
2023/10/04 15:41:48;;;;;;;9.85;1.95;;;20.00;90.30;;;;;;4930009;29;20032;-68
2023/10/04 15:44:15;;;;;;;6.10;1.80;;;19.70;91.00;;;;;;4930821;29;20055;-68
2023/10/04 15:46:41;;;;;;;8.57;2.17;;;19.50;91.50;;;;;;4918313;29;20119;-69
2023/10/04 15:49:08;;;;;;;2.78;1.08;;;19.30;92.40;;;;;;4932230;29;20580;-68
2023/10/04 15:51:37;;;;;;;5.18;1.52;;;19.40;91.30;;;;;;4918253;29;20035;-68
2023/10/04 15:54:04;;;;;;;5.95;2.58;;;19.30;91.20;;;;;;4925737;29;20371;-68
2023/10/04 15:56:31;;;;;;;4.93;1.35;;;19.00;92.00;;;;;;4933977;29;20031;-68
2023/10/04 15:58:57;;;;;;;6.18;1.60;;;18.90;93.10;;;;;;4929634;29;20028;-68
2023/10/04 16:01:23;;;;;;;4.97;1.80;;;18.80;94.90;;;;;;4917001;29;20500;-68
2023/10/04 16:03:49;;;;;;;5.78;1.50;;;18.70;94.20;;;;;;4917163;29;20552;-68
2023/10/04 16:06:14;;;;;;;5.20;1.60;;;18.40;94.50;;;;;;4916671;29;20040;-68
2023/10/04 16:08:40;;;;;;;6.40;1.90;;;18.40;94.80;;;;;;4930229;29;20044;-68
2023/10/04 16:11:07;;;;;;;5.75;1.80;;;18.30;95.60;;;;;;4915616;29;20056;-68
2023/10/04 16:13:34;;;;;;;8.60;1.70;;;18.10;96.70;;;;;;4931000;29;20099;-68
2023/10/04 16:16:00;;;;;;;4.57;1.95;;;18.10;97.60;;;;;;4930988;29;20035;-68
2023/10/04 16:18:28;;;;;;;5.30;1.73;;;18.00;98.20;;;;;;4930645;29;20031;-68
2023/10/04 16:20:57;;;;;;;4.90;1.42;;;17.90;98.70;;;;;;4928426;29;20031;-68
2023/10/04 16:23:23;;;;;;;6.32;1.95;;;17.90;99.70;;;;;;4918483;29;20043;-68
2023/10/04 16:25:50;;;;;;;4.22;1.40;;;17.90;99.90;;;;;;4929478;29;20384;-68
2023/10/04 16:28:16;;;;;;;9.27;2.20;;;17.80;99.80;;;;;;4935625;29;20032;-68
2023/10/04 16:30:43;;;;;;;4.97;1.90;;;17.80;99.90;;;;;;4930654;29;20035;-70
2023/10/04 16:33:09;;;;;;;8.80;1.55;;;17.70;99.80;;;;;;4934221;29;20107;-71
2023/10/04 16:35:35;;;;;;;7.95;1.45;;;17.70;99.40;;;;;;4929405;29;20167;-67
2023/10/04 16:38:01;;;;;;;7.03;1.80;;;17.70;99.90;;;;;;4931649;29;20039;-69
2023/10/04 16:40:27;;;;;;;6.50;1.75;;;17.60;99.80;;;;;;4920248;29;20039;-68
2023/10/04 16:42:53;;;;;;;7.45;2.05;;;17.60;99.90;;;;;;4923775;29;20054;-69
2023/10/04 16:45:22;;;;;;;6.22;1.98;;;17.60;99.90;;;;;;4927054;29;20063;-69
2023/10/04 16:47:48;;;;;;;8.48;1.73;;;17.50;99.90;;;;;;4923161;29;20111;-71
2023/10/04 16:50:18;;;;;;;6.88;2.35;;;17.50;99.90;;;;;;4931620;28;20040;-69
2023/10/04 16:52:45;;;;;;;7.30;2.45;;;17.40;99.90;;;;;;4918878;29;20488;-69
2023/10/04 16:55:12;;;;;;;6.97;1.92;;;17.40;99.90;;;;;;4919615;29;20488;-69
2023/10/04 16:57:37;;;;;;;4.65;1.70;;;17.40;99.90;;;;;;4917038;29;20076;-69
2023/10/04 17:00:09;;;;;;;4.88;2.03;;;17.30;99.90;;;;;;4920510;29;20412;-69
2023/10/04 17:02:37;;;;;;;5.35;1.67;;;17.30;99.90;;;;;;4917232;29;20091;-69
2023/10/04 17:05:04;;;;;;;4.68;1.58;;;17.30;99.90;;;;;;4933494;29;20095;-69
2023/10/04 17:07:31;;;;;;;6.88;2.38;;;17.30;99.90;;;;;;4926674;29;20035;-70
2023/10/04 17:09:57;;;;;;;4.57;1.67;;;17.30;99.90;;;;;;4933368;29;20052;-69
2023/10/04 17:12:24;;;;;;;5.88;2.22;;;17.20;99.90;;;;;;4916599;29;20082;-69
2023/10/04 17:14:51;;;;;;;6.38;2.13;;;17.20;99.90;;;;;;4942383;28;20122;-69
2023/10/04 17:17:17;;;;;;;6.47;1.42;;;17.10;99.90;;;;;;4926399;29;20035;-69
2023/10/04 17:19:43;;;;;;;4.93;1.60;;;17.10;99.90;;;;;;4921485;29;20087;-69
2023/10/04 17:22:10;;;;;;;5.75;2.08;;;17.10;99.90;;;;;;4921226;29;20404;-69
2023/10/04 17:24:35;;;;;;;4.93;1.50;;;17.00;99.90;;;;;;4923684;29;20042;-69
2023/10/04 17:27:04;;;;;;;6.43;1.88;;;17.00;99.90;;;;;;4922512;29;20039;-69
2023/10/04 17:29:30;;;;;;;6.97;2.20;;;16.90;99.90;;;;;;4925369;29;20036;-69
2023/10/04 17:31:57;;;;;;;5.50;1.80;;;16.80;99.90;;;;;;4922103;29;20031;-69
2023/10/04 17:34:23;;;;;;;6.72;2.00;;;16.80;99.90;;;;;;4925878;29;20032;-69
2023/10/04 17:36:48;;;;;;;6.43;1.33;;;16.80;99.90;;;;;;4921997;29;20090;-69
2023/10/04 17:39:14;;;;;;;6.63;2.13;;;16.80;99.90;;;;;;4905096;28;20109;-69
2023/10/04 17:41:40;;;;;;;9.88;1.85;;;16.70;99.90;;;;;;4952389;28;20036;-70
2023/10/04 17:44:07;;;;;;;4.38;1.60;;;16.60;99.90;;;;;;4942835;28;20051;-70
2023/10/04 17:46:34;;;;;;;6.85;2.13;;;16.60;99.90;;;;;;4941376;28;20038;-69
2023/10/04 17:49:00;;;;;;;4.68;1.90;;;16.50;99.90;;;;;;4947886;28;20423;-69
2023/10/04 17:51:26;;;;;;;7.45;1.95;;;16.50;99.90;;;;;;4935628;28;20042;-69
2023/10/04 17:53:52;;;;;;;6.85;2.33;;;16.50;99.90;;;;;;4932019;29;20478;-69
2023/10/04 17:56:18;;;;;;;5.95;2.03;;;16.50;99.90;;;;;;4933514;28;20103;-69
2023/10/04 17:58:44;;;;;;;6.63;2.08;;;16.50;99.90;;;;;;4932004;28;20108;-69
2023/10/04 18:01:11;;;;;;;8.30;2.55;;;16.40;99.90;;;;;;4933383;29;20050;-69
2023/10/04 18:03:37;;;;;;;10.88;2.42;;;16.40;99.90;;;;;;4931903;28;20031;-69
2023/10/04 18:06:04;;;;;;;10.18;1.65;;;16.20;99.90;;;;;;4937315;28;20041;-69
2023/10/04 18:08:30;;;;;;;10.32;2.30;;;16.20;99.90;;;;;;4950191;28;20418;-69
2023/10/04 18:10:56;;;;;;;8.07;1.75;;;16.10;99.90;;;;;;4969276;28;20039;-69
2023/10/04 18:13:22;;;;;;;6.18;2.75;;;16.10;99.90;;;;;;4959007;28;20105;-69
2023/10/04 18:15:48;;;;;;;8.57;2.08;;;16.00;99.90;;;;;;4952677;28;20502;-69
2023/10/04 18:18:13;;;;;;;10.52;2.25;;;16.00;99.90;;;;;;4958999;28;20048;-69
2023/10/04 18:20:39;;;;;;;6.25;1.88;;;15.90;99.90;;;;;;4948977;28;20479;-69
2023/10/04 18:23:05;;;;;;;8.43;1.80;;;15.90;99.90;;;;;;4948285;28;20044;-69
2023/10/04 18:25:32;;;;;;;3.78;1.70;;;15.80;99.90;;;;;;4952536;28;20502;-69
2023/10/04 18:27:58;;;;;;;6.32;1.77;;;15.70;99.90;;;;;;4949329;28;20027;-69
2023/10/04 18:30:25;;;;;;;8.00;1.98;;;15.70;99.90;;;;;;4945774;28;20028;-69
2023/10/04 18:32:51;;;;;;;11.80;2.85;;;15.60;99.90;;;;;;4963386;28;20078;-69
2023/10/04 18:35:17;;;;;;;5.43;1.83;;;15.60;99.90;;;;;;4967991;28;20040;-69
2023/10/04 18:37:43;;;;;;;13.65;2.10;;;15.60;99.90;;;;;;4958306;28;20026;-69
2023/10/04 18:40:10;;;;;;;5.65;2.35;;;15.60;99.90;;;;;;4952979;28;20035;-69
2023/10/04 18:42:37;;;;;;;7.95;2.88;;;15.70;99.90;;;;;;4953013;28;20048;-68
2023/10/04 18:45:04;;;;;;;4.78;2.22;;;15.70;99.90;;;;;;4962629;28;20039;-69
2023/10/04 18:47:31;;;;;;;6.78;2.70;;;15.60;99.90;;;;;;4941051;28;20051;-69
2023/10/04 18:49:56;;;;;;;11.35;2.63;;;15.60;99.90;;;;;;4957294;28;20490;-69
2023/10/04 18:52:23;;;;;;;8.60;2.53;;;15.50;99.90;;;;;;4958817;28;20027;-69
2023/10/04 18:54:49;;;;;;;12.40;2.75;;;15.50;99.90;;;;;;4956678;28;20118;-69
2023/10/04 18:57:15;;;;;;;7.05;2.95;;;15.40;99.90;;;;;;4939307;28;20118;-69
2023/10/04 18:59:41;;;;;;;15.52;2.97;;;15.30;99.90;;;;;;4955094;28;20043;-69
2023/10/04 19:02:07;;;;;;;12.90;2.60;;;15.30;99.90;;;;;;4948083;28;20479;-69
2023/10/04 19:04:33;;;;;;;7.15;2.95;;;15.20;99.90;;;;;;4954245;28;20369;-69
2023/10/04 19:07:02;;;;;;;11.25;2.47;;;15.20;99.90;;;;;;4956022;28;20235;-69
2023/10/04 19:09:33;;;;;;;6.60;1.63;;;15.10;99.90;;;;;;4958485;28;20027;-69
2023/10/04 19:12:00;;;;;;;8.60;2.33;;;15.10;99.90;;;;;;4950574;28;20464;-69
2023/10/04 19:14:25;;;;;;;8.80;2.95;;;15.00;99.90;;;;;;4956197;28;20023;-69
2023/10/04 19:16:51;;;;;;;12.48;2.90;;;15.00;99.90;;;;;;4951563;28;20365;-69
2023/10/04 19:19:17;;;;;;;9.60;2.00;;;15.00;99.90;;;;;;4967623;28;20122;-69
2023/10/04 19:21:43;;;;;;;6.45;1.95;;;14.90;99.90;;;;;;4948842;28;20023;-69
2023/10/04 19:24:11;;;;;;;5.18;1.80;;;14.90;99.90;;;;;;4944559;28;20040;-69
2023/10/04 19:26:38;;;;;;;7.43;2.22;;;14.80;99.90;;;;;;4941338;28;20056;-69
2023/10/04 19:29:08;;;;;;;4.85;2.00;;;14.70;99.90;;;;;;4945365;28;20035;-69
2023/10/04 19:31:34;;;;;;;7.50;2.30;;;14.70;99.90;;;;;;4952790;28;20468;-68
2023/10/04 19:34:00;;;;;;;10.05;2.70;;;14.60;99.90;;;;;;4949922;28;20088;-68
2023/10/04 19:36:26;;;;;;;7.22;2.75;;;14.50;99.90;;;;;;4944613;28;20460;-68
2023/10/04 19:38:52;;;;;;;8.65;2.75;;;14.40;99.90;;;;;;4946429;28;20098;-68
2023/10/04 19:41:18;;;;;;;7.70;2.63;;;14.30;99.90;;;;;;4946193;28;20036;-68
2023/10/04 19:43:45;;;;;;;4.75;2.13;;;14.20;99.90;;;;;;4941907;28;20067;-68
2023/10/04 19:46:12;;;;;;;6.32;2.30;;;14.10;99.90;;;;;;4950664;28;20089;-68
2023/10/04 19:48:40;;;;;;;8.27;2.33;;;14.00;99.90;;;;;;4955391;28;20038;-68
2023/10/04 19:51:07;;;;;;;6.78;2.60;;;14.00;99.90;;;;;;4933489;29;20453;-68
2023/10/04 19:53:34;;;;;;;15.15;5.50;;;14.00;99.90;;;;;;4938364;28;20095;-67
2023/10/04 19:56:01;;;;;;;9.77;3.55;;;13.90;99.90;;;;;;4942215;28;20034;-68
2023/10/04 19:58:27;;;;;;;10.77;3.67;;;13.70;99.90;;;;;;4953755;28;20395;-67
2023/10/04 20:00:56;;;;;;;5.75;2.63;;;13.60;99.90;;;;;;4948265;28;20077;-67
2023/10/04 20:03:23;;;;;;;8.43;2.95;;;13.50;99.90;;;;;;4953523;28;20035;-67
2023/10/04 20:05:49;;;;;;;10.52;3.28;;;13.50;99.90;;;;;;4945741;28;20103;-67
2023/10/04 20:08:19;;;;;;;10.80;3.28;;;13.60;99.90;;;;;;4953254;28;20039;-68
2023/10/04 20:10:47;;;;;;;6.55;2.90;;;13.80;99.90;;;;;;4944347;28;20067;-67
2023/10/04 20:13:15;;;;;;;6.88;2.28;;;13.80;99.90;;;;;;4952187;28;20035;-68
2023/10/04 20:15:41;;;;;;;5.35;1.92;;;13.70;99.90;;;;;;4945386;29;20764;-68
2023/10/04 20:18:08;;;;;;;9.93;3.00;;;13.60;99.90;;;;;;4953386;29;20062;-68
2023/10/04 20:20:35;;;;;;;20.17;5.20;;;13.70;99.90;;;;;;4944727;28;20087;-67
2023/10/04 20:23:02;;;;;;;27.08;12.60;;;13.70;99.90;;;;;;4951971;28;20488;-68
2023/10/04 20:25:29;;;;;;;9.13;3.60;;;13.70;99.90;;;;;;4949422;28;20058;-67
2023/10/04 20:27:55;;;;;;;5.88;3.38;;;13.70;99.90;;;;;;4950415;28;20658;-67
2023/10/04 20:30:21;;;;;;;10.68;3.00;;;13.60;99.90;;;;;;4963458;28;20047;-68
2023/10/04 20:32:47;;;;;;;12.07;2.83;;;13.60;99.90;;;;;;4951342;28;20029;-68
2023/10/04 20:35:14;;;;;;;11.25;3.45;;;13.50;99.90;;;;;;4947596;28;20058;-69
2023/10/04 20:37:40;;;;;;;7.82;2.78;;;13.50;99.90;;;;;;4947703;28;20094;-68
2023/10/04 20:40:09;;;;;;;9.50;3.30;;;13.60;99.90;;;;;;4948391;28;20498;-69
2023/10/04 20:42:40;;;;;;;6.63;2.72;;;13.50;99.90;;;;;;4951458;28;20039;-68
2023/10/04 20:45:09;;;;;;;;;;;13.60;99.90;;;;;;4949254;28;20439;-68
2023/10/04 20:47:35;;;;;;;5.93;2.85;;;13.40;99.90;;;;;;4952299;28;20433;-69
2023/10/04 20:50:00;;;;;;;8.75;3.10;;;13.20;99.90;;;;;;4949694;29;20031;-68
2023/10/04 20:52:27;;;;;;;7.40;2.55;;;13.00;99.90;;;;;;4951519;28;20463;-69
2023/10/04 20:54:55;;;;;;;4.50;2.13;;;12.80;99.90;;;;;;4949862;28;20030;-69
2023/10/04 20:57:22;;;;;;;5.18;2.35;;;12.70;99.90;;;;;;4951038;28;20127;-68
2023/10/04 20:59:49;;;;;;;8.15;3.20;;;12.60;99.90;;;;;;4949682;28;20423;-68
2023/10/04 21:02:19;;;;;;;9.73;2.67;;;12.60;99.90;;;;;;4952498;28;20195;-68
2023/10/04 21:04:45;;;;;;;5.68;2.53;;;12.50;99.90;;;;;;4948428;29;20045;-68
2023/10/04 21:07:12;;;;;;;8.18;2.75;;;12.60;99.90;;;;;;4950765;28;20027;-69
2023/10/04 21:09:38;;;;;;;9.18;3.22;;;12.50;99.90;;;;;;4949301;29;20114;-69
2023/10/04 21:12:05;;;;;;;8.70;3.88;;;12.50;99.90;;;;;;4951115;28;20106;-69
2023/10/04 21:14:31;;;;;;;14.25;3.95;;;12.50;99.90;;;;;;4950035;28;20108;-68
2023/10/04 21:16:57;;;;;;;5.18;2.65;;;12.50;99.90;;;;;;4952341;29;20102;-68
2023/10/04 21:19:24;;;;;;;8.52;3.15;;;12.50;99.90;;;;;;4950276;29;20063;-68
2023/10/04 21:21:49;;;;;;;10.52;2.35;;;12.30;99.90;;;;;;4953241;28;20059;-69
2023/10/04 21:24:17;;;;;;;18.92;3.20;;;12.30;99.90;;;;;;4950771;28;20035;-68
2023/10/04 21:26:44;;;;;;;8.27;2.90;;;12.30;99.90;;;;;;4952376;29;20034;-68
2023/10/04 21:29:10;;;;;;;10.85;2.63;;;12.20;99.90;;;;;;4950612;29;20406;-69
2023/10/04 21:31:36;;;;;;;11.70;3.50;;;12.20;99.90;;;;;;4950205;29;20122;-69
2023/10/04 21:34:09;;;;;;;5.50;3.20;;;12.30;99.90;;;;;;4952390;29;20115;-68
2023/10/04 21:36:35;;;;;;;6.07;2.45;;;12.20;99.90;;;;;;4952079;29;20054;-69
2023/10/04 21:39:06;;;;;;;165.90;50.25;;;12.10;99.90;;;;;;4953371;28;20038;-69
2023/10/04 21:41:42;;;;;;;31.92;14.10;;;12.10;99.90;;;;;;4951773;29;20122;-69
2023/10/04 21:44:11;;;;;;;4.28;2.17;;;11.80;99.90;;;;;;4952383;29;20027;-68
2023/10/04 21:46:40;;;;;;;8.82;2.72;;;11.70;99.90;;;;;;4934677;29;20039;-68
2023/10/04 21:49:07;;;;;;;8.50;3.35;;;11.70;99.90;;;;;;4951584;28;20370;-68
2023/10/04 21:51:45;;;;;;;8.05;3.45;;;11.80;99.90;;;;;;4951712;29;20049;-68
2023/10/04 21:54:13;;;;;;;9.55;3.33;;;11.80;99.90;;;;;;4952086;29;20135;-69
2023/10/04 21:56:39;;;;;;;7.53;2.75;;;11.70;99.90;;;;;;4966602;28;20182;-68
2023/10/04 21:59:06;;;;;;;9.35;3.50;;;11.70;99.90;;;;;;4952728;28;20058;-69
2023/10/04 22:01:32;;;;;;;9.77;2.72;;;11.80;99.90;;;;;;4951708;29;20046;-68
2023/10/04 22:03:59;;;;;;;9.55;3.40;;;11.80;99.90;;;;;;4953756;28;20382;-68
2023/10/04 22:06:25;;;;;;;9.80;2.58;;;11.70;99.90;;;;;;4950243;29;20118;-69
2023/10/04 22:08:51;;;;;;;9.45;3.28;;;11.70;99.90;;;;;;4950813;28;20609;-68
2023/10/04 22:11:17;;;;;;;7.30;2.63;;;11.70;99.90;;;;;;4949501;28;20062;-68
2023/10/04 22:13:43;;;;;;;9.98;2.50;;;11.70;99.90;;;;;;4950818;28;20476;-69
2023/10/04 22:16:10;;;;;;;8.63;2.15;;;11.80;99.90;;;;;;4948316;29;20126;-69
2023/10/04 22:18:36;;;;;;;9.27;3.38;;;11.70;99.90;;;;;;4952371;28;20031;-69
2023/10/04 22:21:03;;;;;;;8.65;3.13;;;11.70;99.90;;;;;;4947346;29;20035;-68
2023/10/04 22:23:29;;;;;;;3.72;2.38;;;11.70;99.90;;;;;;4951566;28;20027;-68
2023/10/04 22:25:54;;;;;;;8.13;2.35;;;11.70;99.90;;;;;;4952186;28;20506;-69
2023/10/04 22:28:20;;;;;;;6.50;2.55;;;11.60;99.90;;;;;;4953168;28;20635;-69
2023/10/04 22:30:49;;;;;;;6.80;3.20;;;11.40;99.90;;;;;;4945927;28;20039;-68
2023/10/04 22:33:18;;;;;;;9.75;2.85;;;11.50;99.90;;;;;;4951909;28;20570;-68
2023/10/04 22:35:45;;;;;;;9.57;2.75;;;11.50;99.90;;;;;;4940009;28;20027;-69
2023/10/04 22:38:12;;;;;;;6.53;2.88;;;11.60;99.90;;;;;;4952071;28;20506;-69
2023/10/04 22:40:38;;;;;;;5.85;2.35;;;11.50;99.90;;;;;;4944923;28;20436;-69
2023/10/04 22:43:07;;;;;;;12.35;3.03;;;11.50;99.90;;;;;;4952818;29;20126;-72
2023/10/04 22:45:33;;;;;;;13.70;3.03;;;11.50;99.90;;;;;;4944280;28;20039;-68
2023/10/04 22:48:00;;;;;;;13.75;3.20;;;11.50;99.90;;;;;;4951864;28;20526;-68
2023/10/04 22:50:25;;;;;;;3.83;2.00;;;11.50;99.90;;;;;;4945569;28;20039;-69
2023/10/04 22:52:53;;;;;;;13.05;2.60;;;11.50;99.90;;;;;;4953084;28;20024;-68
2023/10/04 22:55:20;;;;;;;5.78;2.60;;;11.40;99.90;;;;;;4945676;28;20389;-68
2023/10/04 22:57:48;;;;;;;9.95;2.50;;;11.40;99.90;;;;;;4952649;28;20086;-68
2023/10/04 23:00:35;;;;;;;9.95;2.75;;;11.40;99.90;;;;;;4947930;28;20118;-69
2023/10/04 23:03:00;;;;;;;4.82;1.92;;;11.40;99.90;;;;;;4955157;29;20039;-69
2023/10/04 23:05:26;;;;;;;8.27;2.83;;;11.30;99.90;;;;;;4947861;28;20126;-68
2023/10/04 23:07:54;;;;;;;22.27;2.65;;;11.30;99.90;;;;;;4939435;29;20510;-68
2023/10/04 23:10:23;;;;;;;14.65;3.03;;;11.20;99.90;;;;;;4932372;29;20061;-68
2023/10/04 23:12:57;;;;;;;10.27;2.03;;;11.20;99.90;;;;;;4956645;28;20054;-68
2023/10/04 23:15:28;;;;;;;8.85;2.33;;;11.10;99.90;;;;;;4947846;28;20044;-69
2023/10/04 23:21:31;;;;;;;8.02;1.90;;;11.10;99.90;;;;;;4949075;28;20151;-68
2023/10/04 23:23:31;;;;;;;11.15;2.95;;;11.10;99.90;;;;;;4941862;28;20047;-68
2023/10/04 23:25:58;;;;;;;4.68;2.55;;;11.20;99.90;;;;;;4955698;29;20053;-68
2023/10/04 23:28:23;;;;;;;4.38;3.00;;;11.00;99.90;;;;;;4956115;29;20057;-68
2023/10/04 23:30:51;;;;;;;7.07;1.77;;;11.00;99.90;;;;;;4948709;28;20039;-68
2023/10/04 23:33:20;;;;;;;5.65;2.13;;;11.00;99.90;;;;;;4955185;28;20027;-69
2023/10/04 23:35:57;;;;;;;11.60;2.53;;;11.00;99.90;;;;;;4947095;28;20027;-68
2023/10/04 23:43:40;;;;;;;5.95;2.78;;;11.10;99.90;;;;;;4954331;28;20051;-68
2023/10/04 23:48:58;;;;;;;5.45;2.28;;;10.90;99.90;;;;;;4951533;29;20044;-68
2023/10/04 23:51:25;;;;;;;3.67;2.13;;;10.90;99.90;;;;;;4967172;28;20031;-68
2023/10/04 23:56:23;;;;;;;9.68;2.45;;;10.80;99.90;;;;;;4966522;28;20037;-68
2023/10/04 23:58:49;;;;;;;6.55;2.38;;;10.70;99.90;;;;;;4953062;28;20128;-68
